Time;durP1;ratioP1;P1;durP2;ratioP2;P2;SDS_P1;SDS_P2;PMS_P1;PMS_P2;Temp;Humidity;BMP_temperature;BMP_pressure;BME280_temperature;BME280_humidity;BME280_pressure;Samples;Min_cycle;Max_cycle;Signal;HPM_P1;HPM_P2
2022/10/26 00:01:43;;;;;;;4.35;1.70;;;17.70;76.90;;;;;;5011787;28;20043;-82
2022/10/26 00:04:09;;;;;;;2.95;1.50;;;17.70;76.90;;;;;;5008190;28;20023;-81
2022/10/26 00:06:35;;;;;;;2.00;1.38;;;17.70;77.40;;;;;;5004231;28;20102;-81
2022/10/26 00:09:01;;;;;;;2.35;1.27;;;17.70;76.90;;;;;;5005711;28;20086;-81
2022/10/26 00:11:27;;;;;;;1.92;1.42;;;17.70;76.90;;;;;;5004313;28;20445;-81
2022/10/26 00:13:53;;;;;;;2.13;1.33;;;17.70;76.90;;;;;;4991935;28;20433;-82
2022/10/26 00:16:22;;;;;;;2.22;1.35;;;17.70;77.00;;;;;;4989879;28;20042;-82
2022/10/26 00:18:48;;;;;;;3.08;1.70;;;17.60;76.80;;;;;;4991201;28;20572;-82
2022/10/26 00:21:16;;;;;;;3.53;1.30;;;17.70;77.40;;;;;;4987611;28;20389;-81
2022/10/26 00:23:42;;;;;;;3.08;1.30;;;17.60;76.90;;;;;;4982844;28;20038;-81
2022/10/26 00:26:09;;;;;;;3.20;2.17;;;17.60;76.90;;;;;;4990325;28;20033;-84
2022/10/26 00:28:35;;;;;;;5.93;2.17;;;17.60;77.00;;;;;;4989199;28;20161;-82
2022/10/26 00:31:03;;;;;;;2.33;1.00;;;17.60;77.00;;;;;;5015527;28;20057;-83
2022/10/26 00:33:30;;;;;;;2.03;1.10;;;17.60;77.10;;;;;;4979908;28;20069;-83
2022/10/26 00:35:56;;;;;;;2.47;1.30;;;17.60;77.10;;;;;;4990311;28;20023;-83
2022/10/26 00:38:22;;;;;;;2.13;1.13;;;17.60;77.10;;;;;;4990090;28;20046;-83
2022/10/26 00:40:48;;;;;;;2.33;1.05;;;17.60;77.20;;;;;;4994715;28;20041;-82
2022/10/26 00:43:23;;;;;;;1.48;1.20;;;17.60;77.20;;;;;;4996158;28;20030;-83
2022/10/26 00:45:54;;;;;;;3.03;1.55;;;17.60;77.20;;;;;;4986596;28;20068;-82
2022/10/26 00:48:37;;;;;;;3.13;1.33;;;17.60;77.30;;;;;;4990273;28;20520;-81
2022/10/26 00:51:12;;;;;;;2.35;1.75;;;17.60;77.30;;;;;;4990558;28;20034;-82
2022/10/26 00:53:38;;;;;;;2.83;1.65;;;17.60;77.30;;;;;;4979425;28;20045;-81
2022/10/26 00:56:05;;;;;;;4.18;1.60;;;17.60;77.30;;;;;;4989866;28;20566;-83
2022/10/26 00:58:34;;;;;;;2.22;1.38;;;17.60;77.30;;;;;;4989353;28;20042;-83
2022/10/26 01:01:00;;;;;;;1.70;1.40;;;17.60;77.30;;;;;;4990397;28;20026;-82
2022/10/26 01:03:27;;;;;;;3.00;1.73;;;17.60;77.30;;;;;;4989043;28;20038;-82
2022/10/26 01:05:56;;;;;;;1.60;1.10;;;17.60;77.40;;;;;;5005737;28;20099;-82
2022/10/26 01:08:22;;;;;;;5.25;1.50;;;17.60;77.40;;;;;;4992232;28;20030;-82
2022/10/26 01:10:49;;;;;;;3.47;1.58;;;17.60;77.40;;;;;;5005581;28;20038;-84
2022/10/26 01:13:17;;;;;;;5.50;1.73;;;17.60;77.40;;;;;;4994762;28;20375;-83
2022/10/26 01:15:59;;;;;;;3.05;1.17;;;17.70;77.60;;;;;;4994237;28;20035;-82
2022/10/26 01:18:35;;;;;;;4.03;1.85;;;17.70;77.50;;;;;;4976868;28;20048;-82
2022/10/26 01:21:25;;;;;;;4.13;1.58;;;17.70;77.60;;;;;;4993112;28;20038;-83
2022/10/26 01:24:39;;;;;;;2.75;1.60;;;17.70;77.60;;;;;;4986585;28;20624;-82
2022/10/26 01:27:45;;;;;;;3.30;2.10;;;17.70;77.60;;;;;;4992040;28;20037;-81
2022/10/26 01:30:11;;;;;;;2.65;1.63;;;17.60;77.50;;;;;;4977738;28;20382;-82
2022/10/26 01:33:01;;;;;;;2.92;1.60;;;17.60;77.40;;;;;;4972420;28;20077;-83
2022/10/26 01:35:37;;;;;;;3.33;1.83;;;17.60;77.50;;;;;;5006401;28;20038;-81
2022/10/26 01:38:35;;;;;;;3.05;1.70;;;17.60;77.60;;;;;;4994475;28;20402;-81
2022/10/26 01:41:12;;;;;;;4.18;1.73;;;17.60;77.60;;;;;;4991645;28;20379;-82
2022/10/26 01:43:54;;;;;;;3.55;1.38;;;17.60;77.70;;;;;;4992696;28;20030;-81
2022/10/26 01:46:23;;;;;;;3.53;1.70;;;17.60;77.70;;;;;;5003775;28;20148;-82
2022/10/26 01:48:54;;;;;;;2.58;1.80;;;17.60;77.70;;;;;;5015182;28;20170;-83
2022/10/26 01:51:21;;;;;;;2.53;1.35;;;17.60;77.80;;;;;;5019087;28;20125;-83
2022/10/26 01:53:47;;;;;;;1.95;1.70;;;17.60;77.80;;;;;;5009798;28;20038;-82
2022/10/26 01:56:20;;;;;;;3.33;1.20;;;17.60;77.90;;;;;;5010955;28;20049;-82
2022/10/26 01:59:10;;;;;;;2.50;1.20;;;17.60;77.90;;;;;;5011791;28;20046;-82
2022/10/26 02:01:50;;;;;;;4.20;1.90;;;17.60;77.90;;;;;;5012643;28;20436;-82
2022/10/26 02:04:28;;;;;;;3.25;1.85;;;17.60;77.90;;;;;;5009669;28;20098;-83
2022/10/26 02:07:23;;;;;;;3.35;1.27;;;17.50;77.80;;;;;;4999828;28;20029;-83
2022/10/26 02:10:11;;;;;;;2.55;1.25;;;17.60;77.90;;;;;;5016352;28;20272;-83
2022/10/26 02:12:48;;;;;;;3.22;1.27;;;17.60;77.90;;;;;;4995334;28;20034;-82
2022/10/26 02:15:20;;;;;;;2.33;1.10;;;17.50;77.80;;;;;;5015513;28;20476;-82
2022/10/26 02:18:02;;;;;;;2.30;1.00;;;17.50;77.80;;;;;;5006449;28;20038;-82
2022/10/26 02:20:41;;;;;;;1.73;1.10;;;17.50;77.90;;;;;;5014747;28;20041;-83
2022/10/26 02:23:11;;;;;;;4.65;2.05;;;17.50;77.90;;;;;;5000063;28;20037;-82
2022/10/26 02:25:46;;;;;;;3.65;1.60;;;17.50;77.90;;;;;;5003669;28;20023;-82
2022/10/26 02:28:18;;;;;;;2.75;1.80;;;17.40;77.80;;;;;;5030670;28;20045;-82
2022/10/26 02:30:46;;;;;;;4.05;1.55;;;17.40;77.90;;;;;;5012794;28;20030;-83
2022/10/26 02:33:15;;;;;;;3.47;1.50;;;17.40;78.00;;;;;;5008188;28;20037;-82
2022/10/26 02:35:44;;;;;;;3.97;1.65;;;17.40;78.00;;;;;;5002589;28;20045;-81
2022/10/26 02:38:16;;;;;;;2.35;1.27;;;17.30;77.80;;;;;;5003085;28;20050;-82
2022/10/26 02:40:44;;;;;;;4.88;1.50;;;17.30;77.90;;;;;;5012397;28;20083;-83
2022/10/26 02:43:15;;;;;;;3.47;1.58;;;17.30;77.90;;;;;;4993821;28;20050;-81
2022/10/26 02:45:47;;;;;;;3.58;1.75;;;17.30;78.00;;;;;;4993969;28;20479;-81
2022/10/26 02:48:14;;;;;;;;;;;17.30;78.00;;;;;;5006992;28;20520;-81
2022/10/26 02:51:04;;;;;;;3.38;1.30;;;17.30;78.00;;;;;;5014937;28;19955;-81
2022/10/26 02:53:37;;;;;;;3.03;1.27;;;17.30;78.00;;;;;;4999878;28;20034;-80
2022/10/26 02:56:15;;;;;;;4.03;1.90;;;17.30;78.00;;;;;;5015415;28;20033;-81
2022/10/26 02:58:45;;;;;;;3.38;1.35;;;17.30;78.00;;;;;;4992926;28;20041;-81
2022/10/26 03:01:12;;;;;;;4.05;1.88;;;17.20;77.90;;;;;;5014715;28;20032;-82
2022/10/26 03:03:39;;;;;;;7.93;2.20;;;17.20;78.40;;;;;;5008341;28;20030;-81
2022/10/26 03:06:05;;;;;;;3.25;1.48;;;17.20;78.00;;;;;;5006751;28;20030;-81
2022/10/26 03:08:31;;;;;;;3.72;1.73;;;17.20;78.00;;;;;;5014348;28;20026;-80
2022/10/26 03:10:58;;;;;;;5.10;1.45;;;17.20;78.00;;;;;;5016408;28;20061;-80
2022/10/26 03:13:25;;;;;;;4.90;1.50;;;17.10;77.90;;;;;;4993568;28;20072;-80
2022/10/26 03:15:55;;;;;;;6.80;1.60;;;17.10;78.00;;;;;;4978227;28;20038;-81
2022/10/26 03:18:23;;;;;;;3.78;1.35;;;17.10;78.10;;;;;;4994113;28;20046;-81
2022/10/26 03:20:50;;;;;;;5.63;1.70;;;17.10;78.10;;;;;;4990859;28;20442;-81
2022/10/26 03:23:16;;;;;;;3.95;1.27;;;17.10;78.10;;;;;;4975362;28;20039;-82
2022/10/26 03:25:43;;;;;;;3.25;1.80;;;17.00;77.90;;;;;;5004880;28;20367;-81
2022/10/26 03:28:09;;;;;;;3.38;1.60;;;17.00;77.90;;;;;;5003158;28;20025;-82
2022/10/26 03:30:35;;;;;;;4.43;2.05;;;16.90;77.80;;;;;;5017935;28;20027;-82
2022/10/26 03:33:01;;;;;;;4.40;1.75;;;16.90;77.80;;;;;;4989078;28;20046;-82
2022/10/26 03:35:27;;;;;;;6.18;1.52;;;16.90;77.90;;;;;;4998425;28;20042;-82
2022/10/26 03:37:53;;;;;;;5.97;1.45;;;16.90;77.90;;;;;;5022705;28;20096;-81
2022/10/26 03:40:21;;;;;;;3.70;1.27;;;16.80;77.80;;;;;;4995207;28;20026;-82
2022/10/26 03:42:47;;;;;;;5.30;2.22;;;16.80;77.80;;;;;;5021517;28;20038;-81
2022/10/26 03:45:14;;;;;;;8.43;2.55;;;16.70;77.70;;;;;;5007928;28;20029;-82
2022/10/26 03:47:45;;;;;;;5.43;2.35;;;16.70;77.80;;;;;;5000464;28;20521;-83
2022/10/26 03:50:12;;;;;;;3.75;1.55;;;16.70;77.80;;;;;;5000960;28;20027;-84
2022/10/26 03:52:39;;;;;;;6.93;1.63;;;16.70;77.90;;;;;;5023209;28;20405;-83
2022/10/26 03:55:05;;;;;;;6.55;1.65;;;16.60;77.70;;;;;;5001391;28;20073;-83
2022/10/26 03:57:32;;;;;;;7.13;2.50;;;16.60;77.80;;;;;;4995672;28;20030;-82
2022/10/26 03:59:59;;;;;;;4.97;2.05;;;16.60;77.80;;;;;;5000824;28;20127;-83
2022/10/26 04:02:25;;;;;;;2.40;1.42;;;16.50;77.70;;;;;;5003465;28;20044;-82
2022/10/26 04:04:51;;;;;;;6.22;1.83;;;16.50;77.80;;;;;;4988226;28;20023;-82
2022/10/26 04:07:17;;;;;;;4.13;1.35;;;16.50;77.80;;;;;;4997987;28;20026;-82
2022/10/26 04:09:44;;;;;;;3.92;1.98;;;16.50;77.80;;;;;;4998055;28;20030;-81
2022/10/26 04:12:12;;;;;;;5.78;1.70;;;16.50;77.90;;;;;;4994636;28;20039;-82
2022/10/26 04:14:38;;;;;;;5.00;1.80;;;16.50;78.00;;;;;;5006427;28;20473;-82
2022/10/26 04:17:04;;;;;;;4.63;1.92;;;16.50;78.50;;;;;;4993871;28;20035;-81
2022/10/26 04:19:29;;;;;;;4.63;1.55;;;16.50;78.00;;;;;;4997096;28;20409;-82
2022/10/26 04:21:55;;;;;;;7.57;1.88;;;16.50;78.00;;;;;;5023046;28;20034;-84
2022/10/26 04:24:21;;;;;;;2.50;1.23;;;16.50;78.00;;;;;;5007230;28;20034;-80
2022/10/26 04:26:47;;;;;;;6.32;1.67;;;16.50;78.00;;;;;;5004546;28;20076;-83
2022/10/26 04:29:13;;;;;;;4.38;1.55;;;16.50;78.00;;;;;;4998290;28;20033;-81
2022/10/26 04:31:40;;;;;;;4.35;1.40;;;16.50;78.10;;;;;;5009979;28;20034;-82
2022/10/26 04:34:06;;;;;;;7.72;2.78;;;16.50;78.10;;;;;;4997371;28;20393;-82
2022/10/26 04:36:34;;;;;;;4.88;1.90;;;16.50;78.10;;;;;;4994561;28;20050;-81
2022/10/26 04:39:01;;;;;;;5.20;1.48;;;16.50;78.10;;;;;;4996438;28;20342;-82
2022/10/26 04:41:27;;;;;;;5.88;1.90;;;16.40;78.00;;;;;;4991697;28;20030;-84
2022/10/26 04:43:53;;;;;;;7.68;2.05;;;16.40;78.00;;;;;;4993923;28;20042;-83
2022/10/26 04:46:19;;;;;;;11.45;2.65;;;16.40;78.00;;;;;;5005754;28;20274;-82
2022/10/26 04:48:47;;;;;;;5.65;1.90;;;16.40;78.00;;;;;;4998772;28;20046;-82
2022/10/26 04:51:13;;;;;;;5.07;1.90;;;16.50;78.20;;;;;;5001504;28;20034;-81
2022/10/26 04:53:39;;;;;;;5.15;1.70;;;16.40;77.80;;;;;;5003468;28;20032;-82
2022/10/26 04:56:06;;;;;;;4.53;1.90;;;16.40;78.10;;;;;;4990275;28;20117;-82
2022/10/26 04:58:32;;;;;;;4.35;1.40;;;16.50;78.30;;;;;;4990431;28;20038;-81
2022/10/26 05:01:01;;;;;;;7.90;1.98;;;16.40;78.10;;;;;;4984139;28;20036;-80
2022/10/26 05:03:27;;;;;;;8.13;1.92;;;16.50;78.30;;;;;;4993877;28;20551;-82
2022/10/26 05:05:53;;;;;;;6.63;1.58;;;16.50;78.30;;;;;;4992775;28;20090;-83
2022/10/26 05:08:19;;;;;;;7.20;3.05;;;16.50;78.30;;;;;;5003359;28;20030;-82
2022/10/26 05:10:49;;;;;;;6.75;1.65;;;16.50;78.40;;;;;;4997521;28;20030;-82
2022/10/26 05:13:15;;;;;;;3.47;1.60;;;16.40;78.20;;;;;;5001243;28;20038;-82
2022/10/26 05:15:41;;;;;;;6.85;1.50;;;16.50;78.40;;;;;;4986698;28;20030;-82
2022/10/26 05:18:08;;;;;;;5.80;1.42;;;16.50;78.40;;;;;;5010776;28;20026;-82
2022/10/26 05:20:35;;;;;;;10.52;2.85;;;16.50;78.50;;;;;;5028111;28;20045;-82
2022/10/26 05:23:03;;;;;;;8.43;2.05;;;16.50;78.50;;;;;;4998906;28;20374;-83
2022/10/26 05:25:31;;;;;;;3.72;1.55;;;16.50;78.50;;;;;;4989197;28;20500;-81
2022/10/26 05:27:58;;;;;;;4.45;1.58;;;16.50;78.50;;;;;;5007129;28;20040;-88
2022/10/26 05:30:26;;;;;;;6.35;2.35;;;16.50;78.50;;;;;;5012779;28;20065;-81
2022/10/26 05:32:58;;;;;;;7.43;1.42;;;16.50;78.50;;;;;;5002493;28;20037;-82
2022/10/26 05:35:25;;;;;;;6.95;1.90;;;16.50;78.60;;;;;;4992663;28;20035;-81
2022/10/26 05:37:51;;;;;;;5.35;1.63;;;16.50;78.60;;;;;;4994335;28;20038;-80
2022/10/26 05:40:19;;;;;;;7.53;2.70;;;16.50;78.60;;;;;;4999215;28;20027;-83
2022/10/26 05:42:45;;;;;;;5.68;1.90;;;16.50;78.70;;;;;;5007510;28;20028;-86
2022/10/26 05:45:12;;;;;;;6.47;1.77;;;16.50;78.70;;;;;;5005975;28;20062;-86
2022/10/26 05:47:43;;;;;;;5.65;1.73;;;16.50;78.70;;;;;;5011809;28;20030;-88
2022/10/26 05:50:10;;;;;;;6.13;1.42;;;16.50;78.80;;;;;;5012552;28;20042;-86
2022/10/26 05:52:45;;;;;;;4.72;1.50;;;16.50;78.80;;;;;;5009408;28;20062;-85
2022/10/26 05:55:13;;;;;;;6.35;2.47;;;16.60;79.10;;;;;;5011695;28;20069;-85
2022/10/26 05:57:40;;;;;;;6.03;1.67;;;16.60;79.00;;;;;;5005749;28;20050;-87
2022/10/26 06:00:22;;;;;;;8.15;2.30;;;16.60;79.10;;;;;;5004259;28;20035;-88
2022/10/26 06:02:57;;;;;;;7.93;1.98;;;16.60;79.70;;;;;;4971881;28;20093;-85
2022/10/26 06:05:27;;;;;;;5.88;2.10;;;16.60;79.10;;;;;;4991860;28;20283;-84
2022/10/26 06:07:53;;;;;;;9.25;1.75;;;16.70;79.20;;;;;;5007299;28;20489;-85
2022/10/26 06:10:20;;;;;;;9.30;1.98;;;16.70;79.20;;;;;;4994625;28;20580;-86
2022/10/26 06:12:46;;;;;;;6.88;2.47;;;16.70;79.20;;;;;;4993972;28;20033;-85
2022/10/26 06:15:17;;;;;;;6.22;1.65;;;16.70;79.20;;;;;;4992949;28;20030;-93
2022/10/26 06:17:59;;;;;;;8.43;2.63;;;16.70;79.30;;;;;;4992023;28;20026;-86
2022/10/26 06:20:43;;;;;;;5.70;1.70;;;16.70;79.30;;;;;;5000004;28;20026;-86
2022/10/26 06:23:26;;;;;;;5.05;1.65;;;16.80;79.40;;;;;;4986426;28;20406;-89
2022/10/26 06:26:24;;;;;;;6.85;1.17;;;16.80;79.40;;;;;;4989091;28;20064;-90
2022/10/26 06:29:19;;;;;;;4.30;1.25;;;16.80;79.40;;;;;;4985207;28;20039;-89
2022/10/26 06:31:46;;;;;;;5.65;1.23;;;16.80;79.40;;;;;;4991779;28;20092;-90
2022/10/26 06:34:34;;;;;;;4.28;1.15;;;16.80;79.30;;;;;;4975349;28;20045;-88
2022/10/26 06:37:01;;;;;;;4.85;1.35;;;16.80;79.40;;;;;;4991892;28;20385;-87
2022/10/26 06:39:35;;;;;;;4.38;1.40;;;16.80;79.40;;;;;;5016050;28;20051;-84
2022/10/26 06:42:01;;;;;;;4.18;1.15;;;16.80;79.40;;;;;;4986557;28;20027;-89
2022/10/26 06:44:28;;;;;;;4.43;1.60;;;16.80;79.40;;;;;;4991206;28;20034;-82
2022/10/26 06:47:06;;;;;;;2.83;1.00;;;16.80;79.40;;;;;;5004083;28;20481;-83
2022/10/26 06:49:49;;;;;;;5.60;1.45;;;16.80;79.50;;;;;;4992973;28;20053;-81
2022/10/26 06:52:15;;;;;;;2.83;0.88;;;16.80;79.50;;;;;;4989550;28;20049;-87
2022/10/26 06:54:50;;;;;;;3.30;1.20;;;16.80;79.50;;;;;;5002388;28;20405;-90
2022/10/26 06:57:33;;;;;;;4.18;1.30;;;16.70;79.30;;;;;;4994802;28;20568;-89
2022/10/26 07:00:21;;;;;;;5.82;1.17;;;16.70;79.40;;;;;;4989880;28;20046;-86
2022/10/26 07:02:48;;;;;;;5.07;1.13;;;16.80;79.50;;;;;;4990848;28;20041;-83
2022/10/26 07:05:14;;;;;;;4.65;1.10;;;16.70;79.30;;;;;;4991921;28;20478;-82
2022/10/26 07:07:45;;;;;;;4.90;1.35;;;16.80;79.60;;;;;;4995612;28;20022;-82
2022/10/26 07:10:13;;;;;;;4.13;1.33;;;16.80;79.60;;;;;;4975093;28;20039;-83
2022/10/26 07:12:40;;;;;;;4.22;1.10;;;16.80;79.60;;;;;;4987025;28;20496;-83
2022/10/26 07:15:09;;;;;;;4.05;1.15;;;16.80;79.60;;;;;;4992566;28;20034;-84
2022/10/26 07:17:47;;;;;;;5.47;1.50;;;16.80;79.60;;;;;;4996894;28;20030;-83
2022/10/26 07:20:16;;;;;;;5.25;1.77;;;16.80;79.70;;;;;;5002830;28;20042;-82
2022/10/26 07:22:44;;;;;;;3.97;1.38;;;16.80;79.60;;;;;;4972368;28;20030;-83
2022/10/26 07:25:11;;;;;;;7.10;1.95;;;16.80;79.60;;;;;;4978761;28;20083;-83
2022/10/26 07:27:37;;;;;;;6.57;1.42;;;16.80;79.70;;;;;;4991613;28;20389;-84
2022/10/26 07:30:04;;;;;;;5.13;1.50;;;16.80;79.60;;;;;;4994478;28;20038;-83
2022/10/26 07:32:30;;;;;;;5.75;1.23;;;16.80;79.60;;;;;;4985652;28;20027;-82
2022/10/26 07:34:56;;;;;;;5.32;1.58;;;16.80;79.60;;;;;;5001965;28;20116;-83
2022/10/26 07:37:22;;;;;;;6.40;1.90;;;16.90;79.70;;;;;;4996378;28;20022;-83
2022/10/26 07:39:48;;;;;;;5.28;1.60;;;16.90;79.70;;;;;;4996840;28;20045;-83
2022/10/26 07:42:14;;;;;;;7.68;2.58;;;17.00;79.80;;;;;;5002311;28;20113;-83
2022/10/26 07:44:43;;;;;;;9.73;1.98;;;17.00;79.70;;;;;;4992991;28;20026;-83
2022/10/26 07:47:09;;;;;;;5.28;1.73;;;17.00;79.60;;;;;;4993778;28;20428;-87
2022/10/26 07:49:35;;;;;;;9.82;2.35;;;17.00;79.60;;;;;;4977244;28;20054;-79
2022/10/26 07:52:07;;;;;;;9.65;2.17;;;17.00;79.60;;;;;;5005126;28;20833;-80
2022/10/26 07:54:37;;;;;;;5.57;1.50;;;17.10;79.80;;;;;;5000232;28;20038;-84
2022/10/26 07:57:03;;;;;;;8.77;2.53;;;17.10;79.70;;;;;;4991782;28;20375;-81
2022/10/26 07:59:29;;;;;;;4.90;1.73;;;17.10;79.60;;;;;;5006711;28;20042;-81
2022/10/26 08:01:55;;;;;;;6.53;1.85;;;17.20;79.80;;;;;;5025209;28;20080;-84
2022/10/26 08:04:22;;;;;;;8.93;2.55;;;17.30;79.80;;;;;;4998254;28;20034;-85
2022/10/26 08:06:48;;;;;;;6.57;1.80;;;17.30;79.70;;;;;;5006796;28;20035;-81
2022/10/26 08:09:16;;;;;;;7.45;1.58;;;17.30;79.60;;;;;;4993385;28;20037;-80
2022/10/26 08:11:41;;;;;;;8.88;2.40;;;17.30;79.60;;;;;;5010537;28;20072;-82
2022/10/26 08:14:10;;;;;;;8.55;2.42;;;17.30;79.50;;;;;;4992240;28;20262;-81
2022/10/26 08:16:39;;;;;;;7.53;1.98;;;17.30;79.50;;;;;;5007938;28;20045;-81
2022/10/26 08:19:06;;;;;;;9.18;2.88;;;17.30;79.40;;;;;;5006216;28;20538;-81
2022/10/26 08:21:32;;;;;;;7.95;2.20;;;17.30;79.50;;;;;;5002998;28;20043;-84
2022/10/26 08:23:59;;;;;;;7.97;2.28;;;17.30;79.40;;;;;;4987043;28;20041;-81
2022/10/26 08:26:25;;;;;;;9.20;3.03;;;17.30;79.40;;;;;;4993428;28;20031;-82
2022/10/26 08:28:51;;;;;;;6.07;1.83;;;17.30;79.40;;;;;;4996258;28;20392;-81
2022/10/26 08:31:17;;;;;;;9.27;2.50;;;17.30;79.40;;;;;;5008100;28;20034;-82
2022/10/26 08:33:44;;;;;;;8.25;2.55;;;17.30;79.30;;;;;;4991044;28;20030;-81
2022/10/26 08:36:11;;;;;;;9.70;2.58;;;17.30;79.30;;;;;;4989925;28;20424;-81
2022/10/26 08:38:37;;;;;;;6.35;2.03;;;17.30;79.30;;;;;;4990345;28;20030;-81
2022/10/26 08:41:08;;;;;;;9.30;3.30;;;17.30;79.30;;;;;;4990412;28;20404;-81
2022/10/26 08:43:46;;;;;;;7.95;1.85;;;17.30;79.30;;;;;;5001723;28;20034;-82
2022/10/26 08:46:20;;;;;;;7.10;2.20;;;17.30;79.20;;;;;;4990122;28;20034;-80
2022/10/26 08:48:56;;;;;;;6.55;1.98;;;17.30;79.20;;;;;;4985789;28;20061;-82
2022/10/26 08:51:34;;;;;;;9.90;2.05;;;17.30;79.20;;;;;;4996837;28;20046;-79
2022/10/26 08:54:13;;;;;;;8.25;2.30;;;17.30;79.10;;;;;;4988448;28;20037;-81
2022/10/26 08:56:43;;;;;;;10.13;3.28;;;17.30;79.00;;;;;;4989173;28;20046;-81
2022/10/26 08:59:27;;;;;;;7.32;1.92;;;17.30;79.00;;;;;;5000325;28;20033;-83
2022/10/26 09:01:53;;;;;;;8.20;1.90;;;17.30;78.90;;;;;;5005920;28;20417;-80
2022/10/26 09:04:24;;;;;;;7.45;1.75;;;17.30;78.90;;;;;;4989444;28;20112;-79
2022/10/26 09:07:08;;;;;;;5.90;2.13;;;17.30;78.80;;;;;;5002366;28;20041;-81
2022/10/26 09:09:40;;;;;;;8.80;2.65;;;17.30;78.80;;;;;;4986236;28;20864;-86
2022/10/26 09:12:29;;;;;;;5.20;1.70;;;17.30;78.70;;;;;;4988570;28;20031;-81
2022/10/26 09:15:48;;;;;;;8.45;2.70;;;17.40;78.90;;;;;;4989401;28;20023;-83
2022/10/26 09:18:25;;;;;;;6.45;1.75;;;17.40;78.70;;;;;;4993369;28;20030;-82
2022/10/26 09:21:11;;;;;;;5.70;1.70;;;17.40;78.70;;;;;;5012365;28;20038;-82
2022/10/26 09:23:43;;;;;;;8.23;2.13;;;17.40;78.60;;;;;;4999650;28;20034;-84
2022/10/26 09:26:16;;;;;;;10.45;2.55;;;17.50;78.70;;;;;;5005683;28;20038;-84
2022/10/26 09:28:47;;;;;;;5.45;1.60;;;17.50;78.60;;;;;;4998164;28;20061;-83
2022/10/26 09:31:16;;;;;;;5.80;2.47;;;17.50;78.50;;;;;;4992972;28;20018;-82
2022/10/26 09:33:43;;;;;;;8.32;2.58;;;17.40;78.30;;;;;;4984657;28;20030;-83
2022/10/26 09:36:21;;;;;;;6.25;1.77;;;17.50;78.40;;;;;;4993074;28;20169;-83
2022/10/26 09:39:10;;;;;;;8.00;2.38;;;17.50;78.20;;;;;;4999043;28;20042;-83
2022/10/26 09:41:56;;;;;;;8.50;2.28;;;17.50;78.20;;;;;;4985630;28;20084;-84
2022/10/26 09:44:38;;;;;;;8.45;1.60;;;17.50;78.00;;;;;;4978311;28;20030;-85
2022/10/26 09:47:34;;;;;;;9.50;2.38;;;17.60;78.10;;;;;;5005453;28;20042;-80
2022/10/26 09:50:19;;;;;;;6.35;1.77;;;17.50;77.80;;;;;;4996974;28;20046;-81
2022/10/26 09:52:46;;;;;;;12.02;2.55;;;17.60;78.00;;;;;;4986047;28;20037;-82
2022/10/26 09:55:14;;;;;;;5.97;2.05;;;17.60;77.90;;;;;;4994064;28;20030;-81
2022/10/26 09:57:44;;;;;;;12.80;2.95;;;17.60;77.80;;;;;;4990437;28;20049;-79
2022/10/26 10:00:17;;;;;;;8.77;2.58;;;17.70;77.90;;;;;;5001493;28;20081;-85
2022/10/26 10:02:48;;;;;;;7.45;2.03;;;17.70;77.80;;;;;;4996389;28;20038;-81
2022/10/26 10:05:32;;;;;;;8.38;2.72;;;17.80;77.80;;;;;;4992341;28;20035;-80
2022/10/26 10:08:23;;;;;;;10.85;3.47;;;17.80;77.70;;;;;;5007807;28;20030;-81
2022/10/26 10:11:01;;;;;;;10.13;2.42;;;17.80;77.50;;;;;;5003970;28;20049;-81
2022/10/26 10:13:30;;;;;;;6.30;1.98;;;17.80;77.50;;;;;;5006829;28;20104;-80
2022/10/26 10:16:11;;;;;;;11.20;2.17;;;17.90;77.50;;;;;;4993713;28;20026;-80
2022/10/26 10:18:39;;;;;;;6.28;2.17;;;18.00;77.50;;;;;;4992494;28;20042;-80
2022/10/26 10:21:06;;;;;;;7.38;3.08;;;18.00;77.20;;;;;;4994954;28;20022;-81
2022/10/26 10:23:36;;;;;;;6.00;2.65;;;18.10;77.20;;;;;;4994727;28;20022;-80
2022/10/26 10:26:04;;;;;;;9.52;3.30;;;18.10;77.10;;;;;;4993110;28;20018;-81
2022/10/26 10:28:30;;;;;;;12.10;2.20;;;18.10;76.90;;;;;;5001499;28;20394;-81
2022/10/26 10:31:05;;;;;;;6.28;1.75;;;18.10;76.90;;;;;;4996564;28;20038;-84
2022/10/26 10:33:38;;;;;;;9.88;3.45;;;18.10;76.80;;;;;;4985369;28;20034;-80
2022/10/26 10:36:09;;;;;;;13.73;3.75;;;18.10;76.70;;;;;;4994261;28;20513;-79
2022/10/26 10:38:39;;;;;;;5.88;1.95;;;18.20;76.80;;;;;;4999800;28;20049;-80
2022/10/26 10:41:35;;;;;;;11.98;2.67;;;18.20;76.80;;;;;;5008482;28;20064;-85
2022/10/26 10:44:16;;;;;;;6.40;2.05;;;18.20;76.60;;;;;;4990100;28;20046;-82
2022/10/26 10:46:43;;;;;;;6.80;2.00;;;18.30;76.70;;;;;;5014532;28;20130;-82
2022/10/26 10:49:27;;;;;;;9.10;2.25;;;18.40;76.70;;;;;;4994153;28;20046;-84
2022/10/26 10:51:56;;;;;;;8.90;2.40;;;18.40;76.60;;;;;;4992434;28;20097;-85
2022/10/26 10:54:25;;;;;;;9.73;3.15;;;18.50;76.70;;;;;;4996156;28;20027;-80
2022/10/26 10:57:05;;;;;;;12.70;2.90;;;18.60;76.90;;;;;;4993608;28;20034;-81
2022/10/26 11:00:01;;;;;;;10.57;2.97;;;18.60;76.70;;;;;;4996011;28;20105;-80
2022/10/26 11:02:49;;;;;;;7.70;2.10;;;18.70;76.70;;;;;;4995163;28;20034;-80
2022/10/26 11:05:59;;;;;;;11.55;2.53;;;18.80;76.60;;;;;;4982694;28;20034;-83
2022/10/26 11:08:28;;;;;;;7.78;2.60;;;18.80;76.40;;;;;;4995879;28;20041;-79
2022/10/26 11:11:03;;;;;;;9.13;2.80;;;18.90;76.40;;;;;;4990982;28;20467;-79
2022/10/26 11:13:51;;;;;;;5.57;1.65;;;18.90;76.30;;;;;;4996605;28;20393;-78
2022/10/26 11:16:26;;;;;;;11.15;2.75;;;18.90;76.10;;;;;;4973343;28;20485;-79
2022/10/26 11:18:55;;;;;;;8.07;2.42;;;18.90;76.00;;;;;;4998511;28;20420;-79
2022/10/26 11:21:25;;;;;;;12.02;2.60;;;19.00;76.10;;;;;;4987584;28;20080;-83
2022/10/26 11:24:09;;;;;;;9.85;3.03;;;19.00;76.00;;;;;;5007640;28;20026;-80
2022/10/26 11:26:54;;;;;;;9.88;2.83;;;19.10;75.90;;;;;;4984541;28;20022;-81
2022/10/26 11:29:24;;;;;;;11.55;2.75;;;19.10;75.70;;;;;;4999763;28;20102;-81
2022/10/26 11:31:57;;;;;;;10.45;2.50;;;19.10;75.60;;;;;;5010657;28;20038;-82
2022/10/26 11:34:51;;;;;;;10.80;2.97;;;19.10;75.50;;;;;;5015183;28;20038;-81
2022/10/26 11:37:51;;;;;;;7.47;2.30;;;19.10;75.30;;;;;;5013503;28;20080;-81
2022/10/26 11:40:57;;;;;;;10.63;2.30;;;19.10;75.20;;;;;;5017339;28;20044;-80
2022/10/26 11:43:47;;;;;;;9.35;2.42;;;19.10;75.10;;;;;;5018777;28;20046;-82
2022/10/26 11:46:37;;;;;;;8.18;3.00;;;19.30;75.30;;;;;;5005654;28;20097;-81
2022/10/26 11:49:21;;;;;;;7.07;1.88;;;19.20;74.90;;;;;;4979190;28;20065;-81
2022/10/26 11:52:16;;;;;;;7.22;2.25;;;19.30;75.00;;;;;;4992129;28;20084;-80
2022/10/26 11:54:57;;;;;;;8.55;2.00;;;19.30;74.90;;;;;;4992912;28;20038;-80
2022/10/26 11:57:27;;;;;;;11.02;2.85;;;19.30;74.70;;;;;;4986448;28;20033;-80
2022/10/26 12:00:01;;;;;;;11.23;2.85;;;19.40;74.80;;;;;;5000834;28;20029;-81
2022/10/26 12:02:27;;;;;;;9.35;2.53;;;19.40;74.60;;;;;;5008474;28;20274;-82
2022/10/26 12:05:07;;;;;;;7.97;2.15;;;19.50;74.60;;;;;;5001385;28;20085;-82
2022/10/26 12:07:36;;;;;;;7.97;2.88;;;19.50;74.40;;;;;;4980676;28;20058;-84
2022/10/26 12:10:06;;;;;;;6.47;1.90;;;19.60;74.40;;;;;;5002707;28;20026;-79
2022/10/26 12:12:40;;;;;;;10.73;2.70;;;19.60;74.20;;;;;;4991754;28;20034;-82
2022/10/26 12:15:08;;;;;;;10.35;2.33;;;19.70;74.00;;;;;;5007904;28;20436;-80
2022/10/26 12:18:05;;;;;;;13.15;3.33;;;19.80;73.90;;;;;;5008205;28;20109;-83
2022/10/26 12:21:06;;;;;;;6.65;2.28;;;19.90;73.60;;;;;;4988401;28;20364;-80
2022/10/26 12:23:36;;;;;;;8.60;2.83;;;19.90;73.50;;;;;;4998899;28;20468;-80
2022/10/26 12:26:24;;;;;;;7.95;2.38;;;19.90;73.50;;;;;;5010664;28;20042;-79
2022/10/26 12:29:01;;;;;;;8.30;2.78;;;20.00;73.50;;;;;;5012109;28;20034;-79
2022/10/26 12:31:36;;;;;;;7.63;2.38;;;20.00;73.40;;;;;;5023755;28;20657;-83
2022/10/26 12:34:04;;;;;;;6.35;2.25;;;20.00;73.30;;;;;;4981844;28;20038;-83
2022/10/26 12:36:55;;;;;;;11.18;2.85;;;20.00;73.30;;;;;;5000182;28;20044;-83
2022/10/26 12:39:31;;;;;;;10.73;2.63;;;20.10;73.10;;;;;;4996742;28;20372;-80
2022/10/26 12:42:27;;;;;;;11.02;3.40;;;20.10;73.00;;;;;;4989577;28;20031;-80
2022/10/26 12:44:53;;;;;;;8.93;3.25;;;20.10;72.80;;;;;;4989568;28;20046;-81
2022/10/26 12:47:31;;;;;;;11.73;2.70;;;20.20;73.00;;;;;;5000099;28;20295;-81
2022/10/26 12:50:02;;;;;;;8.25;2.63;;;20.20;72.70;;;;;;5005696;28;20050;-77
2022/10/26 12:52:45;;;;;;;9.48;1.95;;;20.30;72.80;;;;;;4989582;28;20026;-83
2022/10/26 12:55:29;;;;;;;10.27;2.95;;;20.30;72.60;;;;;;4998850;28;20041;-82
2022/10/26 12:58:28;;;;;;;8.63;2.65;;;20.40;72.50;;;;;;4983252;28;20911;-83
2022/10/26 13:01:20;;;;;;;7.68;2.42;;;20.40;72.20;;;;;;4982221;28;20035;-83
2022/10/26 13:04:19;;;;;;;9.02;2.78;;;20.50;72.10;;;;;;4976014;28;20058;-84
2022/10/26 13:07:17;;;;;;;14.25;3.08;;;20.50;72.00;;;;;;4991054;28;20148;-84
2022/10/26 13:10:04;;;;;;;11.13;4.20;;;20.60;71.90;;;;;;4990194;28;20038;-84
2022/10/26 13:12:44;;;;;;;9.40;2.65;;;20.60;71.70;;;;;;5003854;28;20428;-82
2022/10/26 13:15:22;;;;;;;8.82;3.20;;;20.60;71.50;;;;;;4992681;28;20104;-83
2022/10/26 13:18:08;;;;;;;7.68;2.63;;;20.60;71.30;;;;;;5003294;28;20030;-83